createdAt,value
2022-10-29T00:00:43.817Z,97.64
2022-10-29T00:03:48.415Z,97.66
2022-10-29T00:09:58.545Z,97.43
2022-10-29T00:13:02.578Z,97.34
2022-10-29T00:16:19.159Z,97.41
2022-10-29T00:19:21.372Z,97.29
2022-10-29T00:22:24.043Z,97.20
2022-10-29T00:25:26.268Z,96.88
2022-10-29T00:28:29.202Z,96.63
2022-10-29T00:31:31.479Z,96.49
2022-10-29T00:34:34.086Z,96.50
2022-10-29T00:37:36.417Z,96.22
2022-10-29T00:40:38.993Z,96.17
2022-10-29T00:43:45.840Z,96.00
2022-10-29T00:46:52.409Z,95.89
2022-10-29T00:49:59.022Z,95.73
2022-10-29T00:53:02.407Z,95.71
2022-10-29T00:56:05.741Z,95.62
2022-10-29T00:59:09.378Z,95.38
2022-10-29T01:02:12.158Z,95.18
2022-10-29T01:05:19.937Z,95.17
2022-10-29T01:08:22.675Z,95.24
2022-10-29T01:12:04.360Z,95.17
2022-10-29T01:15:17.447Z,95.04
2022-10-29T01:18:24.787Z,95.02
2022-10-29T01:21:34.515Z,94.95
2022-10-29T01:24:49.276Z,94.92
2022-10-29T01:28:12.839Z,94.92
2022-10-29T01:31:15.382Z,94.78
2022-10-29T01:34:25.655Z,94.64
2022-10-29T01:37:50.139Z,94.79
2022-10-29T01:41:04.772Z,94.67
2022-10-29T01:44:30.277Z,94.73
2022-10-29T01:47:40.699Z,94.87
2022-10-29T01:50:48.000Z,94.93
2022-10-29T01:53:51.575Z,95.08
2022-10-29T01:56:58.645Z,95.46
2022-10-29T02:00:06.071Z,95.92
2022-10-29T02:03:22.026Z,96.38
2022-10-29T02:06:42.209Z,96.64
2022-10-29T02:09:56.470Z,96.95
2022-10-29T02:12:59.742Z,97.27
2022-10-29T02:16:06.763Z,97.04
2022-10-29T02:19:09.356Z,97.31
2022-10-29T02:22:11.556Z,97.30
2022-10-29T02:25:14.083Z,97.07
2022-10-29T02:28:16.395Z,96.86
2022-10-29T02:31:18.920Z,96.91
2022-10-29T02:34:21.120Z,96.88
2022-10-29T02:37:23.614Z,96.66
2022-10-29T02:40:25.795Z,96.57
2022-10-29T02:43:28.293Z,96.67
2022-10-29T02:46:30.627Z,97.00
2022-10-29T02:49:33.117Z,97.40
2022-10-29T02:52:35.299Z,97.51
2022-10-29T02:55:37.855Z,97.31
2022-10-29T02:58:40.089Z,97.33
2022-10-29T03:01:42.668Z,97.35
2022-10-29T03:04:44.963Z,97.61
2022-10-29T03:07:47.807Z,97.63
2022-10-29T03:10:49.996Z,97.82
2022-10-29T03:13:52.524Z,97.91
2022-10-29T03:16:54.746Z,97.81
2022-10-29T03:19:57.240Z,97.52
2022-10-29T03:22:59.454Z,97.44
2022-10-29T03:26:02.283Z,97.35
2022-10-29T03:29:04.496Z,97.19
2022-10-29T03:32:06.990Z,97.10
2022-10-29T03:35:11.006Z,96.82
2022-10-29T03:38:13.551Z,96.57
2022-10-29T03:41:15.778Z,96.47
2022-10-29T03:44:18.251Z,96.35
2022-10-29T03:47:20.469Z,96.06
2022-10-29T03:50:22.944Z,95.90
2022-10-29T03:53:25.936Z,95.65
2022-10-29T03:56:28.502Z,95.68
2022-10-29T03:59:30.697Z,95.61
2022-10-29T04:02:33.333Z,95.52
2022-10-29T04:05:35.903Z,95.41
2022-10-29T04:08:38.655Z,95.23
2022-10-29T04:11:41.136Z,95.35
2022-10-29T04:14:45.717Z,95.48
2022-10-29T04:17:51.145Z,95.39
2022-10-29T04:28:41.395Z,95.12
2022-10-29T04:31:08.349Z,95.10
2022-10-29T04:34:10.576Z,95.09
2022-10-29T04:37:13.092Z,95.11
2022-10-29T04:40:15.486Z,95.26
2022-10-29T04:43:18.367Z,95.86
2022-10-29T04:46:20.599Z,95.68
2022-10-29T04:49:23.238Z,95.71
2022-10-29T04:52:25.775Z,95.68
2022-10-29T04:55:28.983Z,95.78
2022-10-29T04:58:31.241Z,96.26
2022-10-29T05:04:35.966Z,96.27
2022-10-29T05:07:38.468Z,96.53
2022-10-29T05:10:40.729Z,96.97
2022-10-29T05:13:45.172Z,96.58
2022-10-29T05:16:47.698Z,96.86
2022-10-29T05:19:50.241Z,97.11
2022-10-29T05:23:03.993Z,97.21
2022-10-29T05:26:06.528Z,97.41
2022-10-29T05:29:08.720Z,97.41
2022-10-29T05:32:11.225Z,97.33
2022-10-29T05:35:13.556Z,97.24
2022-10-29T05:38:16.822Z,97.44
2022-10-29T05:41:19.082Z,97.50
2022-10-29T05:44:21.589Z,97.12
2022-10-29T05:47:24.069Z,96.78
2022-10-29T05:50:27.218Z,96.49
2022-10-29T05:53:29.463Z,96.36
2022-10-29T05:56:32.017Z,96.26
2022-10-29T05:59:34.223Z,95.88
2022-10-29T06:02:36.754Z,95.67
2022-10-29T06:05:39.306Z,95.44
2022-10-29T06:08:41.614Z,95.85
2022-10-29T06:11:44.086Z,95.91
2022-10-29T06:14:46.312Z,96.23
2022-10-29T06:17:49.159Z,96.58
2022-10-29T06:20:51.397Z,96.78
2022-10-29T06:23:54.222Z,96.64
2022-10-29T06:26:56.423Z,96.67
2022-10-29T06:29:58.969Z,96.72
2022-10-29T06:33:02.320Z,96.78
2022-10-29T06:36:05.382Z,96.75
2022-10-29T06:39:07.681Z,96.59
2022-10-29T06:42:10.200Z,96.51
2022-10-29T06:45:13.126Z,96.31
2022-10-29T06:48:20.663Z,96.05
2022-10-29T06:51:24.301Z,95.98
2022-10-29T06:54:26.848Z,96.02
2022-10-29T06:57:29.871Z,96.24
2022-10-29T07:00:33.753Z,96.44
2022-10-29T07:03:36.073Z,96.50
2022-10-29T07:06:38.589Z,96.36
2022-10-29T07:09:40.860Z,96.03
2022-10-29T07:12:44.498Z,95.76
2022-10-29T07:15:47.185Z,95.55
2022-10-29T07:18:50.042Z,95.34
2022-10-29T07:21:52.296Z,95.19
2022-10-29T07:24:57.207Z,95.00
2022-10-29T07:28:16.250Z,94.84
2022-10-29T07:31:18.934Z,95.15
2022-10-29T07:34:21.142Z,95.05
2022-10-29T07:37:23.855Z,95.15
2022-10-29T07:40:26.214Z,95.14
2022-10-29T07:43:31.001Z,95.20
2022-10-29T07:46:33.331Z,95.13
2022-10-29T07:49:35.958Z,95.59
2022-10-29T07:52:40.072Z,95.55
2022-10-29T07:55:45.216Z,95.51
2022-10-29T07:58:47.692Z,95.48
2022-10-29T08:01:50.362Z,95.48
2022-10-29T08:04:53.012Z,95.32
2022-10-29T08:07:55.962Z,95.53
2022-10-29T08:11:03.341Z,95.83
2022-10-29T08:14:06.432Z,96.58
2022-10-29T08:17:08.969Z,96.87
2022-10-29T08:20:11.862Z,97.13
2022-10-29T08:23:14.836Z,96.38
2022-10-29T08:26:17.138Z,96.19
2022-10-29T08:29:19.907Z,95.93
2022-10-29T08:32:22.190Z,95.80
2022-10-29T08:35:24.731Z,95.71
2022-10-29T08:38:27.028Z,95.32
2022-10-29T08:42:07.189Z,95.16
2022-10-29T08:45:24.325Z,94.88
2022-10-29T08:48:46.586Z,94.43
2022-10-29T08:51:57.807Z,94.03
2022-10-29T08:55:19.802Z,93.84
2022-10-29T08:58:21.937Z,93.33
2022-10-29T09:01:24.931Z,93.28
2022-10-29T09:04:28.963Z,93.21
2022-10-29T09:07:59.696Z,93.43
2022-10-29T09:11:40.910Z,92.93
2022-10-29T09:14:52.639Z,92.85
2022-10-29T09:18:03.576Z,92.73
2022-10-29T09:21:27.223Z,92.60
2022-10-29T09:24:52.690Z,92.61
2022-10-29T09:28:22.092Z,92.51
2022-10-29T09:31:40.785Z,92.25
2022-10-29T09:34:47.449Z,92.15
2022-10-29T09:37:55.054Z,91.71
2022-10-29T09:41:00.031Z,91.52
2022-10-29T09:44:16.895Z,91.05
2022-10-29T09:47:41.235Z,90.87
2022-10-29T09:51:08.313Z,90.39
2022-10-29T09:54:11.677Z,89.64
2022-10-29T09:57:36.430Z,89.16
2022-10-29T10:00:38.928Z,89.40
2022-10-29T10:03:48.918Z,89.47
2022-10-29T10:07:19.179Z,89.84
2022-10-29T10:10:23.621Z,89.94
2022-10-29T10:13:32.019Z,89.85
2022-10-29T10:16:34.676Z,89.57
2022-10-29T10:19:43.528Z,89.44
2022-10-29T10:22:47.419Z,89.06
2022-10-29T10:25:52.801Z,89.01
2022-10-29T10:29:19.197Z,88.69
2022-10-29T10:32:25.758Z,88.12
2022-10-29T10:35:31.964Z,87.84
2022-10-29T10:38:46.795Z,87.15
2022-10-29T10:41:50.919Z,87.25
2022-10-29T10:44:58.014Z,86.95
2022-10-29T10:48:01.580Z,86.79
2022-10-29T10:51:26.225Z,86.63
2022-10-29T10:54:37.326Z,86.57
2022-10-29T10:57:50.059Z,86.54
2022-10-29T11:01:07.132Z,86.65
2022-10-29T11:04:27.969Z,86.61
2022-10-29T11:07:34.429Z,87.48
2022-10-29T11:10:50.143Z,88.20
2022-10-29T11:13:55.052Z,88.00
2022-10-29T11:17:01.347Z,87.70
2022-10-29T11:20:27.653Z,87.10
2022-10-29T11:24:05.179Z,87.39
2022-10-29T11:27:16.280Z,87.96
2022-10-29T11:30:19.930Z,88.42
2022-10-29T11:33:28.688Z,89.39
2022-10-29T11:36:38.980Z,89.40
2022-10-29T11:39:52.157Z,89.03
2022-10-29T11:42:54.582Z,87.77
2022-10-29T11:46:22.152Z,87.90
2022-10-29T11:50:22.163Z,87.79
2022-10-29T11:53:49.933Z,87.54
2022-10-29T11:57:14.318Z,87.35
2022-10-29T12:00:20.322Z,86.95
2022-10-29T12:03:44.154Z,87.17
2022-10-29T12:07:27.609Z,87.09
2022-10-29T12:10:45.722Z,87.09
2022-10-29T12:14:04.110Z,86.67
2022-10-29T12:17:32.852Z,85.59
2022-10-29T12:20:50.195Z,85.97
2022-10-29T12:24:05.959Z,85.75
2022-10-29T12:27:15.271Z,85.06
2022-10-29T12:30:19.328Z,84.69
2022-10-29T12:33:27.531Z,83.79
2022-10-29T12:36:35.586Z,83.25
2022-10-29T12:39:44.795Z,82.82
2022-10-29T12:42:49.567Z,83.89
2022-10-29T12:46:21.088Z,84.19
2022-10-29T12:49:42.638Z,84.07
2022-10-29T12:52:47.695Z,84.01
2022-10-29T12:55:51.812Z,84.31
2022-10-29T12:58:59.752Z,84.00
2022-10-29T13:02:19.560Z,84.06
2022-10-29T13:05:24.584Z,84.46
2022-10-29T13:08:34.550Z,84.66
2022-10-29T13:11:51.482Z,85.17
2022-10-29T13:15:02.190Z,85.23
2022-10-29T13:18:21.040Z,85.43
2022-10-29T13:21:57.228Z,85.23
2022-10-29T13:25:33.440Z,85.77
2022-10-29T13:28:35.911Z,86.13
2022-10-29T13:31:45.704Z,86.28
2022-10-29T13:34:51.856Z,86.88
2022-10-29T13:38:16.363Z,86.93
2022-10-29T13:41:40.301Z,86.77
2022-10-29T13:44:43.239Z,86.37
2022-10-29T13:47:46.481Z,87.11
2022-10-29T13:50:54.345Z,87.04
2022-10-29T13:54:06.147Z,87.16
2022-10-29T13:57:26.193Z,87.18
2022-10-29T14:00:32.546Z,87.06
2022-10-29T14:03:35.157Z,86.68
2022-10-29T14:06:40.033Z,86.29
2022-10-29T14:09:46.955Z,86.23
2022-10-29T14:12:55.745Z,86.47
2022-10-29T14:16:09.613Z,86.74
2022-10-29T14:19:20.954Z,86.97
2022-10-29T14:22:23.404Z,87.30
2022-10-29T14:25:35.866Z,87.29
2022-10-29T14:28:38.374Z,87.38
2022-10-29T14:31:40.636Z,87.35
2022-10-29T14:34:45.314Z,87.50
2022-10-29T14:37:49.270Z,87.36
2022-10-29T14:40:51.984Z,87.49
2022-10-29T14:44:03.290Z,87.88
2022-10-29T14:47:19.647Z,87.88
2022-10-29T14:50:25.990Z,88.26
2022-10-29T14:53:35.220Z,88.18
2022-10-29T14:56:41.900Z,88.10
2022-10-29T14:59:49.520Z,88.62
2022-10-29T15:02:54.565Z,88.24
2022-10-29T15:06:18.010Z,88.63
2022-10-29T15:09:27.999Z,88.97
2022-10-29T15:12:39.038Z,89.05
2022-10-29T15:15:53.552Z,89.18
2022-10-29T15:18:57.922Z,88.83
2022-10-29T15:22:00.309Z,89.25
2022-10-29T15:25:08.371Z,89.28
2022-10-29T15:28:14.814Z,89.35
2022-10-29T15:31:29.533Z,89.43
2022-10-29T15:34:34.704Z,89.24
2022-10-29T15:37:44.041Z,89.46
2022-10-29T15:41:14.102Z,89.34
2022-10-29T15:44:39.746Z,89.41
2022-10-29T15:47:44.627Z,89.62
2022-10-29T15:50:47.302Z,90.10
2022-10-29T15:53:49.922Z,89.92
2022-10-29T15:56:52.786Z,90.08
2022-10-29T15:59:57.379Z,90.15
2022-10-29T16:03:17.412Z,90.45
2022-10-29T16:06:20.247Z,90.51
2022-10-29T16:09:22.593Z,90.51
2022-10-29T16:12:26.009Z,90.91
2022-10-29T16:15:28.406Z,90.98
2022-10-29T16:18:30.942Z,91.62
2022-10-29T16:21:33.386Z,92.36
2022-10-29T16:24:35.968Z,92.47
2022-10-29T16:27:38.285Z,92.65
2022-10-29T16:30:41.056Z,92.21
2022-10-29T16:33:43.346Z,92.30
2022-10-29T16:36:46.537Z,92.25
2022-10-29T16:39:48.774Z,92.33
2022-10-29T16:42:59.453Z,92.57
2022-10-29T16:46:05.268Z,92.41
2022-10-29T16:49:08.220Z,92.54
2022-10-29T16:52:15.130Z,92.48
2022-10-29T16:55:21.402Z,92.14
2022-10-29T16:58:23.855Z,92.21
2022-10-29T17:01:26.557Z,92.20
2022-10-29T17:04:29.051Z,92.28
2022-10-29T17:07:31.605Z,92.25
2022-10-29T17:10:34.859Z,92.23
2022-10-29T17:13:38.172Z,92.26
2022-10-29T17:16:40.515Z,92.10
2022-10-29T17:19:43.068Z,92.32
2022-10-29T17:22:45.489Z,92.42
2022-10-29T17:25:51.644Z,92.26
2022-10-29T17:28:53.866Z,92.08
2022-10-29T17:31:56.524Z,91.87
2022-10-29T17:34:59.883Z,91.84
2022-10-29T17:38:02.571Z,91.85
2022-10-29T17:41:05.105Z,91.71
2022-10-29T17:44:07.597Z,91.85
2022-10-29T17:47:11.172Z,91.89
2022-10-29T17:50:13.777Z,91.90
2022-10-29T17:53:16.063Z,91.96
2022-10-29T17:56:18.928Z,92.11
2022-10-29T17:59:21.331Z,92.15
2022-10-29T18:02:24.066Z,92.05
2022-10-29T18:05:26.797Z,92.02
2022-10-29T18:08:30.179Z,92.05
2022-10-29T18:11:33.110Z,92.13
2022-10-29T18:14:35.359Z,93.01
2022-10-29T18:17:37.967Z,93.40
2022-10-29T18:20:40.225Z,93.59
2022-10-29T18:23:49.509Z,93.92
2022-10-29T18:26:52.177Z,93.65
2022-10-29T18:29:54.870Z,93.79
2022-10-29T18:32:57.452Z,94.01
2022-10-29T18:36:00.217Z,94.25
2022-10-29T18:39:06.604Z,94.18
2022-10-29T18:42:09.897Z,93.94
2022-10-29T18:45:12.205Z,93.83
2022-10-29T18:48:14.854Z,93.78
2022-10-29T18:51:28.626Z,93.48
2022-10-29T18:54:31.357Z,93.37
2022-10-29T18:57:34.713Z,93.24
2022-10-29T19:00:41.090Z,93.27
2022-10-29T19:03:51.421Z,93.35
2022-10-29T19:06:57.014Z,93.38
2022-10-29T19:09:59.316Z,93.64
2022-10-29T19:13:01.828Z,93.73
2022-10-29T19:16:12.588Z,93.75
2022-10-29T19:19:17.227Z,93.67
2022-10-29T19:22:22.233Z,93.60
2022-10-29T19:25:25.146Z,93.99
2022-10-29T19:28:29.902Z,94.02
2022-10-29T19:31:38.471Z,94.01
2022-10-29T19:34:48.168Z,94.00
2022-10-29T19:37:58.515Z,93.95
2022-10-29T19:41:03.394Z,93.71
2022-10-29T19:44:06.803Z,93.51
2022-10-29T19:47:11.711Z,93.43
2022-10-29T19:50:16.111Z,93.21
2022-10-29T19:53:18.447Z,93.17
2022-10-29T19:56:23.643Z,93.14
2022-10-29T19:59:31.701Z,93.05
2022-10-29T20:02:39.575Z,93.47
2022-10-29T20:05:44.176Z,93.50
2022-10-29T20:08:47.024Z,93.37
2022-10-29T20:11:49.660Z,93.24
2022-10-29T20:14:51.987Z,93.41
2022-10-29T20:17:55.187Z,92.93
2022-10-29T20:20:57.877Z,92.83
2022-10-29T20:24:01.683Z,92.90
2022-10-29T20:27:04.200Z,92.96
2022-10-29T20:30:07.376Z,93.02
2022-10-29T20:33:10.203Z,93.11
2022-10-29T20:36:12.835Z,93.00
2022-10-29T20:39:15.681Z,92.71
2022-10-29T20:42:21.411Z,92.58
2022-10-29T20:45:28.099Z,92.67
2022-10-29T20:48:30.622Z,92.58
2022-10-29T20:51:32.773Z,92.55
2022-10-29T20:54:36.319Z,92.56
2022-10-29T20:57:38.883Z,92.41
2022-10-29T21:00:41.658Z,92.36
2022-10-29T21:03:44.219Z,92.34
2022-10-29T21:06:47.023Z,92.40
2022-10-29T21:09:49.694Z,92.43
2022-10-29T21:12:52.309Z,92.44
2022-10-29T21:15:54.725Z,92.46
2022-10-29T21:19:02.280Z,92.40
2022-10-29T21:22:04.602Z,92.34
2022-10-29T21:25:07.735Z,92.25
2022-10-29T21:28:11.208Z,92.20
2022-10-29T21:31:13.852Z,92.21
2022-10-29T21:34:16.214Z,92.26
2022-10-29T21:37:18.863Z,92.41
2022-10-29T21:40:21.282Z,92.16
2022-10-29T21:43:26.210Z,92.19
2022-10-29T21:46:31.879Z,92.06
2022-10-29T21:49:34.725Z,91.84
2022-10-29T21:52:37.067Z,91.73
2022-10-29T21:55:39.931Z,91.51
2022-10-29T21:58:42.752Z,91.33
2022-10-29T22:01:50.324Z,91.19
2022-10-29T22:04:53.076Z,91.03
2022-10-29T22:07:56.532Z,90.92
2022-10-29T22:11:00.945Z,91.07
2022-10-29T22:14:03.239Z,90.75
2022-10-29T22:17:05.826Z,90.59
2022-10-29T22:20:08.607Z,90.64
2022-10-29T22:23:11.139Z,90.79
2022-10-29T22:26:15.336Z,90.72
2022-10-29T22:29:17.918Z,90.82
2022-10-29T22:32:20.336Z,90.48
2022-10-29T22:35:22.896Z,90.60
2022-10-29T22:38:25.159Z,90.61
2022-10-29T22:41:29.378Z,90.56
2022-10-29T22:44:31.756Z,90.49
2022-10-29T22:47:34.292Z,90.62
2022-10-29T22:50:36.508Z,90.64
2022-10-29T22:53:39.058Z,90.56
2022-10-29T22:56:41.326Z,90.58
2022-10-29T22:59:43.962Z,90.50
2022-10-29T23:03:12.727Z,90.77
2022-10-29T23:06:18.465Z,91.34
2022-10-29T23:09:20.702Z,91.26
2022-10-29T23:12:23.232Z,91.22
2022-10-29T23:15:28.511Z,91.38
2022-10-29T23:18:31.074Z,91.66
2022-10-29T23:21:34.640Z,92.01
2022-10-29T23:24:37.116Z,92.01
2022-10-29T23:27:39.364Z,92.37
2022-10-29T23:30:41.866Z,92.30
2022-10-29T23:33:49.167Z,92.48
2022-10-29T23:39:54.882Z,93.06
2022-10-29T23:42:57.432Z,93.03
2022-10-29T23:45:59.920Z,93.07
2022-10-29T23:49:02.460Z,93.61
2022-10-29T23:52:07.739Z,93.68
2022-10-29T23:55:10.270Z,93.68
2022-10-29T23:58:13.747Z,93.64
